Time;durP1;ratioP1;P1;durP2;ratioP2;P2;SDS_P1;SDS_P2;PMS_P1;PMS_P2;Temp;Humidity;BMP_temperature;BMP_pressure;BME280_temperature;BME280_humidity;BME280_pressure;Samples;Min_cycle;Max_cycle;Signal;HPM_P1;HPM_P2
2022/05/02 00:02:15;;;;;;;18.60;9.85;;;;;;;;;;8331971;28;20041;-76
2022/05/02 00:06:17;;;;;;;17.23;9.63;;;;;;;;;;8339724;28;20052;-76
2022/05/02 00:10:21;;;;;;;14.95;7.53;;;;;;;;;;8345456;28;20095;-76
2022/05/02 00:14:24;;;;;;;16.08;7.45;;;;;;;;;;8333163;28;20045;-76
2022/05/02 00:18:28;;;;;;;;;;;;;;;;;;8334902;28;20045;-76
2022/05/02 00:22:30;;;;;;;13.07;7.10;;;;;;;;;;8361800;28;19921;-76
2022/05/02 00:26:34;;;;;;;;;;;;;;;;;;8358011;28;20048;-76
2022/05/02 00:30:36;;;;;;;13.13;7.03;;;;;;;;;;8341572;28;20391;-76
2022/05/02 00:34:38;;;;;;;;;;;;;;;;;;8364294;28;20408;-76
2022/05/02 00:38:41;;;;;;;14.02;7.10;;;;;;;;;;8362152;28;19957;-77
2022/05/02 00:42:45;;;;;;;;;;;;;;;;;;8359496;28;20049;-75
2022/05/02 00:46:48;;;;;;;18.50;9.00;;;;;;;;;;8361076;28;19932;-75
2022/05/02 00:50:50;;;;;;;22.25;14.45;;;;;;;;;;8363238;28;20103;-76
2022/05/02 00:54:56;;;;;;;16.63;9.75;;;;;;;;;;8362156;28;20049;-76
2022/05/02 00:59:01;;;;;;;11.63;6.90;;;;;;;;;;8362075;28;20057;-76
2022/05/02 01:03:05;;;;;;;16.63;7.30;;;;;;;;;;8362519;28;20412;-75
2022/05/02 01:07:10;;;;;;;11.82;6.88;;;;;;;;;;8333210;28;20065;-77
2022/05/02 01:11:13;;;;;;;15.48;8.10;;;;;;;;;;8333755;28;20057;-77
2022/05/02 01:15:17;;;;;;;16.73;7.70;;;;;;;;;;8350425;28;20044;-76
2022/05/02 01:19:20;;;;;;;12.13;7.15;;;;;;;;;;8344004;28;20412;-76
2022/05/02 01:23:24;;;;;;;;;;;;;;;;;;8369216;28;20161;-77
2022/05/02 01:27:26;;;;;;;16.58;8.07;;;;;;;;;;8368148;28;20272;-75
2022/05/02 01:31:29;;;;;;;18.30;8.73;;;;;;;;;;8347934;28;20384;-75
2022/05/02 01:35:32;;;;;;;16.10;8.57;;;;;;;;;;8335894;28;20163;-75
2022/05/02 01:39:36;;;;;;;;;;;;;;;;;;8335719;28;20076;-75
2022/05/02 01:43:39;;;;;;;16.35;8.77;;;;;;;;;;8368346;28;19921;-77
2022/05/02 01:47:41;;;;;;;22.70;11.00;;;;;;;;;;8337375;28;20091;-76
2022/05/02 01:51:44;;;;;;;28.35;16.48;;;;;;;;;;8366468;28;20046;-76
2022/05/02 01:55:48;;;;;;;15.35;9.00;;;;;;;;;;8367418;28;20044;-76
2022/05/02 01:59:50;;;;;;;12.80;7.60;;;;;;;;;;8355880;28;20049;-75
2022/05/02 02:03:53;;;;;;;15.75;7.97;;;;;;;;;;8345049;28;20462;-78
2022/05/02 02:07:56;;;;;;;17.80;9.23;;;;;;;;;;8349473;28;20056;-78
2022/05/02 02:12:00;;;;;;;17.75;8.68;;;;;;;;;;8355049;28;20155;-76
2022/05/02 02:16:06;;;;;;;19.02;8.43;;;;;;;;;;8354818;28;20057;-77
2022/05/02 02:20:10;;;;;;;17.20;8.98;;;;;;;;;;8345367;28;20124;-77
2022/05/02 02:24:13;;;;;;;21.58;8.95;;;;;;;;;;8361505;28;20412;-76
2022/05/02 02:28:17;;;;;;;18.60;8.95;;;;;;;;;;8367204;28;20053;-77
2022/05/02 02:32:19;;;;;;;19.75;8.68;;;;;;;;;;8366098;28;20048;-75
2022/05/02 02:36:22;;;;;;;18.92;8.98;;;;;;;;;;8351931;28;20408;-77
2022/05/02 02:40:25;;;;;;;18.65;9.50;;;;;;;;;;8345862;28;20401;-76
2022/05/02 02:44:28;;;;;;;17.08;9.30;;;;;;;;;;8364662;28;20091;-77
2022/05/02 02:48:31;;;;;;;17.63;8.43;;;;;;;;;;8366240;28;20045;-76
2022/05/02 02:52:33;;;;;;;;;;;;;;;;;;8363932;28;20049;-75
2022/05/02 02:56:36;;;;;;;20.33;8.73;;;;;;;;;;8337120;28;19920;-75
2022/05/02 03:00:39;;;;;;;;;;;;;;;;;;8355142;28;20057;-76
2022/05/02 03:09:02;;;;;;;15.27;8.07;;;;;;;;;;8360988;28;20041;-76
2022/05/02 03:13:05;;;;;;;18.52;9.65;;;;;;;;;;8334272;28;20049;-76
2022/05/02 03:17:09;;;;;;;16.48;8.20;;;;;;;;;;8336408;28;20124;-76
2022/05/02 03:21:12;;;;;;;21.80;10.10;;;;;;;;;;8332270;28;20056;-76
2022/05/02 03:25:14;;;;;;;;;;;;;;;;;;8332424;28;20108;-76
2022/05/02 03:29:16;;;;;;;30.83;16.33;;;;;;;;;;8332403;28;20003;-78
2022/05/02 03:33:20;;;;;;;;;;;;;;;;;;8345068;28;20049;-77
2022/05/02 03:37:23;;;;;;;59.28;27.77;;;;;;;;;;8364470;28;19948;-76
2022/05/02 03:41:25;;;;;;;54.75;27.55;;;;;;;;;;8364171;28;20477;-76
2022/05/02 03:45:28;;;;;;;25.80;13.10;;;;;;;;;;8362476;28;20461;-74
2022/05/02 03:49:32;;;;;;;27.42;13.70;;;;;;;;;;8364838;28;20051;-77
2022/05/02 03:53:35;;;;;;;18.95;10.70;;;;;;;;;;8364628;28;20040;-76
2022/05/02 03:57:37;;;;;;;;;;;;;;;;;;8355709;28;20064;-78
2022/05/02 04:01:41;;;;;;;31.48;14.40;;;;;;;;;;8351613;28;19932;-77
2022/05/02 04:05:45;;;;;;;29.60;15.35;;;;;;;;;;8330584;28;20050;-77
2022/05/02 04:09:48;;;;;;;26.88;14.15;;;;;;;;;;8346129;28;20049;-76
2022/05/02 04:13:51;;;;;;;31.45;14.40;;;;;;;;;;8363720;28;20155;-76
2022/05/02 04:17:55;;;;;;;26.98;12.35;;;;;;;;;;8363634;28;20045;-76
2022/05/02 04:21:59;;;;;;;25.70;13.63;;;;;;;;;;8362271;28;20140;-77
2022/05/02 04:26:02;;;;;;;23.83;13.05;;;;;;;;;;8364002;28;20052;-76
2022/05/02 04:30:06;;;;;;;23.50;12.23;;;;;;;;;;8363454;28;20069;-75
2022/05/02 04:34:08;;;;;;;15.43;9.55;;;;;;;;;;8359448;28;20048;-75
2022/05/02 04:38:12;;;;;;;16.65;9.38;;;;;;;;;;8357369;28;20120;-76
2022/05/02 04:42:15;;;;;;;20.83;8.57;;;;;;;;;;8330339;28;20056;-75
2022/05/02 04:46:17;;;;;;;;;;;;;;;;;;8355745;28;20041;-74
2022/05/02 04:50:19;;;;;;;15.85;9.52;;;;;;;;;;8369850;28;19921;-78
2022/05/02 04:54:23;;;;;;;21.08;13.40;;;;;;;;;;8353427;28;20401;-75
2022/05/02 04:58:26;;;;;;;16.20;9.30;;;;;;;;;;8359391;28;20094;-75
2022/05/02 05:02:28;;;;;;;19.80;9.60;;;;;;;;;;8369881;28;20472;-76
2022/05/02 05:06:31;;;;;;;14.80;8.60;;;;;;;;;;8358486;28;20063;-77
2022/05/02 05:10:48;;;;;;;13.32;8.60;;;;;;;;;;8369253;28;20118;-76
2022/05/02 05:19:48;;;;;;;14.27;9.23;;;;;;;;;;8368501;28;20049;-77
2022/05/02 05:24:07;;;;;;;17.27;10.43;;;;;;;;;;8369443;28;20049;-75
2022/05/02 05:28:34;;;;;;;13.63;8.20;;;;;;;;;;8357823;28;20053;-75
2022/05/02 05:32:44;;;;;;;13.13;8.32;;;;;;;;;;8367411;28;20052;-78
2022/05/02 05:37:23;;;;;;;15.05;8.68;;;;;;;;;;8367623;28;20055;-76
2022/05/02 05:41:36;;;;;;;14.02;8.18;;;;;;;;;;8321147;28;20052;-75
2022/05/02 05:45:45;;;;;;;;;;;;;;;;;;8353720;28;20041;-76
2022/05/02 05:50:01;;;;;;;12.93;8.15;;;;;;;;;;8357572;28;19983;-76
2022/05/02 05:54:29;;;;;;;10.80;6.30;;;;;;;;;;8358566;28;20110;-76
2022/05/02 05:58:45;;;;;;;14.95;6.97;;;;;;;;;;8342509;28;20060;-76
2022/05/02 06:03:02;;;;;;;18.77;6.20;;;;;;;;;;8345626;28;20124;-76
2022/05/02 06:07:05;;;;;;;30.95;6.88;;;;;;;;;;8353248;28;20037;-76
2022/05/02 06:11:08;;;;;;;18.75;6.93;;;;;;;;;;8362277;28;20040;-76
2022/05/02 06:19:35;;;;;;;16.52;6.93;;;;;;;;;;8363498;28;20055;-78
2022/05/02 06:23:41;;;;;;;10.10;6.28;;;;;;;;;;8373284;28;20057;-76
2022/05/02 06:27:44;;;;;;;13.23;6.95;;;;;;;;;;8366369;28;20079;-77
2022/05/02 06:31:52;;;;;;;13.32;5.63;;;;;;;;;;8350304;28;20100;-77
2022/05/02 06:36:13;;;;;;;11.48;6.30;;;;;;;;;;8353674;28;20542;-78
2022/05/02 06:40:26;;;;;;;9.48;6.07;;;;;;;;;;8367047;28;20057;-76
2022/05/02 06:44:39;;;;;;;9.15;6.30;;;;;;;;;;8356390;28;20056;-77
2022/05/02 06:48:44;;;;;;;9.93;6.40;;;;;;;;;;8342089;28;20061;-77
2022/05/02 06:53:12;;;;;;;7.50;4.65;;;;;;;;;;8348587;28;20132;-76
2022/05/02 06:57:28;;;;;;;6.75;4.68;;;;;;;;;;8357494;28;20053;-91
2022/05/02 07:12:07;;;;;;;5.20;3.15;;;;;;;;;;8221973;28;20085;-91
2022/05/02 07:16:26;;;;;;;8.13;3.95;;;;;;;;;;8249682;28;20050;-91
2022/05/02 07:20:35;;;;;;;8.50;4.00;;;;;;;;;;8245082;28;20702;-91
2022/05/02 07:24:46;;;;;;;;;;;;;;;;;;8250023;28;20069;-90
2022/05/02 07:28:52;;;;;;;6.18;3.70;;;;;;;;;;8241979;28;19925;-90
2022/05/02 07:32:56;;;;;;;5.28;3.58;;;;;;;;;;8272176;28;20458;-91
2022/05/02 07:37:02;;;;;;;6.68;3.40;;;;;;;;;;8318195;28;20064;-89
2022/05/02 07:41:27;;;;;;;7.90;3.53;;;;;;;;;;8362233;28;20493;-91
2022/05/02 07:45:36;;;;;;;5.32;3.00;;;;;;;;;;8359243;28;20045;-92
2022/05/02 07:49:45;;;;;;;6.25;2.90;;;;;;;;;;8349725;28;20049;-91
2022/05/02 07:53:52;;;;;;;7.80;3.42;;;;;;;;;;8352561;28;20049;-91
2022/05/02 07:57:56;;;;;;;6.65;3.83;;;;;;;;;;8361226;28;20045;-91
2022/05/02 08:02:04;;;;;;;5.13;3.00;;;;;;;;;;8373365;28;20068;-91
2022/05/02 08:06:16;;;;;;;5.97;2.95;;;;;;;;;;8366832;28;20071;-90
2022/05/02 08:11:00;;;;;;;6.88;3.40;;;;;;;;;;8359451;28;20101;-90
2022/05/02 08:15:17;;;;;;;5.38;3.10;;;;;;;;;;8355513;28;20037;-89
2022/05/02 08:19:39;;;;;;;4.63;2.90;;;;;;;;;;8353996;28;20037;-90
2022/05/02 08:28:06;;;;;;;7.00;3.00;;;;;;;;;;8492114;27;20833;-89
2022/05/02 08:32:13;;;;;;;6.38;3.13;;;;;;;;;;8473528;28;20044;-87
2022/05/02 08:36:27;;;;;;;4.78;2.83;;;;;;;;;;8471098;28;20048;-87
2022/05/02 08:41:09;;;;;;;7.10;2.95;;;;;;;;;;8484319;28;20116;-85
2022/05/02 08:45:54;;;;;;;7.47;2.88;;;;;;;;;;8457747;28;20047;-83
2022/05/02 08:50:28;;;;;;;5.40;2.70;;;;;;;;;;8427547;28;20510;-88
2022/05/02 08:55:07;;;;;;;7.95;3.15;;;;;;;;;;8477561;28;20047;-84
2022/05/02 08:59:52;;;;;;;4.13;2.40;;;;;;;;;;8463259;28;20470;-84
2022/05/02 09:04:26;;;;;;;5.82;2.85;;;;;;;;;;8461556;28;20136;-77
2022/05/02 09:09:17;;;;;;;5.82;3.00;;;;;;;;;;8436879;28;20380;-82
2022/05/02 09:14:10;;;;;;;5.90;2.70;;;;;;;;;;8487085;28;20139;-87
2022/05/02 09:18:46;;;;;;;5.70;2.72;;;;;;;;;;8462658;28;20624;-79
2022/05/02 09:23:28;;;;;;;5.90;3.10;;;;;;;;;;8455504;28;20044;-83
2022/05/02 09:27:54;;;;;;;9.32;2.88;;;;;;;;;;8358994;28;20079;-86
2022/05/02 09:32:00;;;;;;;8.65;3.70;;;;;;;;;;8451993;28;20035;-92
2022/05/02 09:36:22;;;;;;;45.75;13.55;;;;;;;;;;8448147;28;20105;-85
2022/05/02 09:40:41;;;;;;;5.00;2.75;;;;;;;;;;8426936;28;20411;-87
2022/05/02 09:49:55;;;;;;;9.18;2.78;;;;;;;;;;8428672;28;20051;-90
2022/05/02 09:54:05;;;;;;;6.63;2.83;;;;;;;;;;8428958;28;20052;-90
2022/05/02 09:58:41;;;;;;;7.35;3.25;;;;;;;;;;8429466;28;20048;-90
2022/05/02 10:02:48;;;;;;;22.27;7.45;;;;;;;;;;8291006;28;20072;-88
2022/05/02 10:06:53;;;;;;;11.50;2.90;;;;;;;;;;8291783;28;20133;-88
2022/05/02 10:11:01;;;;;;;5.72;3.03;;;;;;;;;;8301926;28;20057;-86
2022/05/02 10:15:35;;;;;;;6.93;2.88;;;;;;;;;;8293840;28;20050;-88
2022/05/02 10:20:04;;;;;;;5.78;3.20;;;;;;;;;;8289245;28;20144;-85
2022/05/02 10:24:27;;;;;;;7.72;3.20;;;;;;;;;;8291194;28;20403;-85
2022/05/02 10:29:11;;;;;;;11.18;3.60;;;;;;;;;;8291231;28;20189;-82
2022/05/02 10:33:16;;;;;;;8.80;3.13;;;;;;;;;;8292998;28;20054;-84
2022/05/02 10:37:28;;;;;;;5.35;2.80;;;;;;;;;;8319440;28;20048;-84
2022/05/02 10:41:42;;;;;;;8.55;3.15;;;;;;;;;;8427575;28;20127;-82
2022/05/02 10:45:45;;;;;;;36.28;10.00;;;;;;;;;;8424923;28;20036;-82
2022/05/02 10:50:08;;;;;;;8.13;3.40;;;;;;;;;;8407641;28;20138;-81
2022/05/02 10:54:24;;;;;;;7.18;3.08;;;;;;;;;;8432601;28;20044;-83
2022/05/02 10:58:34;;;;;;;6.72;3.10;;;;;;;;;;8432804;28;20479;-83
2022/05/02 11:02:51;;;;;;;5.22;2.80;;;;;;;;;;8418446;28;20072;-83
2022/05/02 11:07:03;;;;;;;8.15;3.00;;;;;;;;;;8398521;28;20072;-83
2022/05/02 11:11:08;;;;;;;8.27;6.25;;;;;;;;;;8399329;28;20048;-85
2022/05/02 11:15:18;;;;;;;8.35;3.40;;;;;;;;;;8432678;28;20502;-88
2022/05/02 11:24:15;;;;;;;7.07;2.80;;;;;;;;;;8416546;28;20048;-87
2022/05/02 11:28:30;;;;;;;4.82;2.97;;;;;;;;;;8420425;28;20384;-87
2022/05/02 11:32:47;;;;;;;4.82;2.85;;;;;;;;;;8414306;28;20480;-86
2022/05/02 11:36:58;;;;;;;6.53;2.80;;;;;;;;;;8404766;28;20495;-87
2022/05/02 11:41:11;;;;;;;10.05;3.67;;;;;;;;;;8405111;28;20067;-89
2022/05/02 11:45:18;;;;;;;5.35;3.13;;;;;;;;;;8413424;28;20048;-86
2022/05/02 11:49:46;;;;;;;8.25;2.88;;;;;;;;;;8414850;28;20206;-88
2022/05/02 11:53:55;;;;;;;10.45;6.57;;;;;;;;;;8414259;28;20044;-87
2022/05/02 11:58:07;;;;;;;5.20;3.15;;;;;;;;;;8414334;28;20177;-87
2022/05/02 12:02:25;;;;;;;4.30;3.00;;;;;;;;;;8431393;28;20548;-88
2022/05/02 12:06:40;;;;;;;9.15;3.55;;;;;;;;;;8410117;28;20044;-89
2022/05/02 12:10:47;;;;;;;5.70;2.90;;;;;;;;;;8400838;28;20051;-88
2022/05/02 12:15:03;;;;;;;5.07;2.60;;;;;;;;;;8417540;28;20039;-88
2022/05/02 12:19:08;;;;;;;7.82;3.60;;;;;;;;;;8412992;28;20049;-89
2022/05/02 12:23:17;;;;;;;4.65;2.55;;;;;;;;;;8406511;28;20044;-91
2022/05/02 12:27:23;;;;;;;3.70;2.60;;;;;;;;;;8427706;28;20111;-89
2022/05/02 12:31:30;;;;;;;4.97;2.70;;;;;;;;;;8422404;28;20413;-92
2022/05/02 12:35:42;;;;;;;5.95;2.45;;;;;;;;;;8408234;28;20041;-89
2022/05/02 12:39:53;;;;;;;4.43;2.60;;;;;;;;;;8384157;28;20044;-88
2022/05/02 12:44:07;;;;;;;8.20;3.17;;;;;;;;;;8388893;28;20056;-87
2022/05/02 12:48:22;;;;;;;5.35;2.72;;;;;;;;;;8402868;28;20048;-87
2022/05/02 12:52:29;;;;;;;6.15;3.42;;;;;;;;;;8454262;28;20044;-85
2022/05/02 12:56:47;;;;;;;7.47;3.65;;;;;;;;;;8468228;28;20032;-86
2022/05/02 13:00:51;;;;;;;8.32;3.58;;;;;;;;;;8449730;28;20060;-87
2022/05/02 13:04:57;;;;;;;6.82;3.13;;;;;;;;;;8432311;28;20047;-87
2022/05/02 13:09:14;;;;;;;6.63;2.85;;;;;;;;;;8449040;28;20040;-86
2022/05/02 13:13:19;;;;;;;5.20;3.13;;;;;;;;;;8457668;28;20059;-89
2022/05/02 13:17:26;;;;;;;4.38;2.78;;;;;;;;;;8466209;28;20099;-88
2022/05/02 13:26:37;;;;;;;7.13;3.28;;;;;;;;;;8425242;28;20052;-89
2022/05/02 13:30:52;;;;;;;9.18;4.18;;;;;;;;;;8434704;28;20036;-90
2022/05/02 13:35:12;;;;;;;5.38;2.97;;;;;;;;;;8414647;28;20135;-88
2022/05/02 13:39:21;;;;;;;5.07;2.72;;;;;;;;;;8417640;28;20388;-89
2022/05/02 13:43:36;;;;;;;9.20;3.15;;;;;;;;;;8417594;28;20083;-87
2022/05/02 13:47:54;;;;;;;4.90;2.90;;;;;;;;;;8434021;28;20104;-84
2022/05/02 13:52:05;;;;;;;5.80;2.70;;;;;;;;;;8417474;28;20099;-88
2022/05/02 13:56:14;;;;;;;7.55;3.42;;;;;;;;;;8394757;28;20056;-89
2022/05/02 14:04:54;;;;;;;7.18;3.45;;;;;;;;;;8400864;28;20089;-88
2022/05/02 14:09:01;;;;;;;5.90;2.88;;;;;;;;;;8385357;28;20076;-86
2022/05/02 14:13:17;;;;;;;4.22;2.80;;;;;;;;;;8399699;28;20048;-85
2022/05/02 14:17:36;;;;;;;7.38;4.13;;;;;;;;;;8399842;28;20044;-88
2022/05/02 14:21:50;;;;;;;6.18;3.42;;;;;;;;;;8400257;28;20070;-83
2022/05/02 14:25:55;;;;;;;6.30;2.92;;;;;;;;;;8400185;28;20139;-88
2022/05/02 14:30:05;;;;;;;8.48;3.33;;;;;;;;;;8407135;28;20131;-86
2022/05/02 14:34:12;;;;;;;8.02;4.88;;;;;;;;;;8407148;28;20067;-85
2022/05/02 14:38:22;;;;;;;6.97;2.95;;;;;;;;;;8389156;28;20044;-88
2022/05/02 14:42:27;;;;;;;6.38;3.10;;;;;;;;;;8428780;28;20087;-88
2022/05/02 14:46:34;;;;;;;7.97;3.97;;;;;;;;;;8393577;28;20086;-87
2022/05/02 14:50:44;;;;;;;7.03;4.28;;;;;;;;;;8412840;28;20082;-90
2022/05/02 14:54:55;;;;;;;6.13;3.67;;;;;;;;;;8402561;28;20045;-89
2022/05/02 14:59:06;;;;;;;5.32;3.47;;;;;;;;;;8402416;28;20048;-89
2022/05/02 15:03:14;;;;;;;6.40;3.92;;;;;;;;;;8392431;28;20475;-89
2022/05/02 15:07:22;;;;;;;5.80;3.75;;;;;;;;;;8397005;28;20051;-89
2022/05/02 15:11:38;;;;;;;7.63;3.80;;;;;;;;;;8396617;28;20056;-88
2022/05/02 15:15:52;;;;;;;5.75;2.97;;;;;;;;;;8382660;28;20064;-86
2022/05/02 15:20:16;;;;;;;6.03;3.63;;;;;;;;;;8405375;28;20506;-86
2022/05/02 15:24:47;;;;;;;11.85;5.22;;;;;;;;;;8393503;28;20455;-90
2022/05/02 15:38:24;;;;;;;6.47;3.90;;;;;;;;;;8412417;28;20044;-87
2022/05/02 15:42:27;;;;;;;9.48;5.53;;;;;;;;;;8378720;28;20056;-90
2022/05/02 15:46:43;;;;;;;9.35;4.93;;;;;;;;;;8396538;28;20052;-86
2022/05/02 15:50:49;;;;;;;12.20;6.57;;;;;;;;;;8419154;28;20730;-88
2022/05/02 15:55:01;;;;;;;24.42;11.40;;;;;;;;;;8441115;28;20148;-89
2022/05/02 15:59:24;;;;;;;10.35;5.47;;;;;;;;;;8459409;28;20096;-87
2022/05/02 16:03:29;;;;;;;9.15;4.18;;;;;;;;;;8459755;28;20418;-86
2022/05/02 16:12:18;;;;;;;8.07;3.80;;;;;;;;;;8428243;28;20047;-86
2022/05/02 16:16:24;;;;;;;6.95;3.40;;;;;;;;;;8459733;28;20093;-90
2022/05/02 16:20:38;;;;;;;11.05;4.78;;;;;;;;;;8459591;28;20047;-89
2022/05/02 16:24:46;;;;;;;7.30;3.70;;;;;;;;;;8441936;28;20111;-88
2022/05/02 16:28:56;;;;;;;11.25;4.13;;;;;;;;;;8459652;28;20497;-88
2022/05/02 16:33:05;;;;;;;7.70;4.03;;;;;;;;;;8459324;28;20090;-87
2022/05/02 16:37:15;;;;;;;14.90;7.35;;;;;;;;;;8440916;28;20079;-87
2022/05/02 16:41:27;;;;;;;9.98;5.65;;;;;;;;;;8459234;28;20048;-86
2022/05/02 16:45:33;;;;;;;11.38;6.35;;;;;;;;;;8459480;28;20047;-87
2022/05/02 16:49:43;;;;;;;9.80;4.78;;;;;;;;;;8465024;28;20043;-86
2022/05/02 16:53:52;;;;;;;9.38;5.32;;;;;;;;;;8408204;28;20044;-87
2022/05/02 16:58:04;;;;;;;13.43;6.13;;;;;;;;;;8420793;28;20055;-88
2022/05/02 17:02:10;;;;;;;12.90;6.33;;;;;;;;;;8421280;28;20076;-87
2022/05/02 17:06:15;;;;;;;21.13;8.80;;;;;;;;;;8403215;28;20045;-88
2022/05/02 17:10:22;;;;;;;11.15;6.93;;;;;;;;;;8413086;28;20127;-87
2022/05/02 17:14:25;;;;;;;16.95;10.60;;;;;;;;;;8399093;28;20048;-88
2022/05/02 17:18:33;;;;;;;11.85;6.60;;;;;;;;;;8414643;28;20462;-89
2022/05/02 17:22:38;;;;;;;14.27;5.53;;;;;;;;;;8404638;28;20075;-88
2022/05/02 17:26:48;;;;;;;11.02;5.32;;;;;;;;;;8391309;28;20147;-88
2022/05/02 17:30:58;;;;;;;7.20;4.53;;;;;;;;;;8405966;28;20082;-90
2022/05/02 17:35:11;;;;;;;7.82;5.00;;;;;;;;;;8419808;28;20076;-88
2022/05/02 17:39:25;;;;;;;16.95;10.60;;;;;;;;;;8429998;28;20044;-86
2022/05/02 17:43:35;;;;;;;9.85;5.55;;;;;;;;;;8403744;28;20872;-86
2022/05/02 17:47:46;;;;;;;10.13;5.82;;;;;;;;;;8397198;28;20044;-87
2022/05/02 17:51:59;;;;;;;11.88;6.38;;;;;;;;;;8397116;28;20044;-86
2022/05/02 17:56:17;;;;;;;81.80;38.67;;;;;;;;;;8379581;28;20048;-88
2022/05/02 18:00:28;;;;;;;98.82;53.75;;;;;;;;;;8378925;28;20098;-88
2022/05/02 18:04:36;;;;;;;31.08;18.35;;;;;;;;;;8396707;28;20051;-88
2022/05/02 18:08:45;;;;;;;13.68;7.97;;;;;;;;;;8385357;28;20055;-87
2022/05/02 18:13:07;;;;;;;11.93;6.35;;;;;;;;;;8415906;28;20047;-86
2022/05/02 18:17:24;;;;;;;12.73;9.25;;;;;;;;;;8397139;28;20108;-87
2022/05/02 18:21:32;;;;;;;8.80;5.97;;;;;;;;;;8415423;28;20475;-87
2022/05/02 18:25:37;;;;;;;12.25;6.63;;;;;;;;;;8421846;28;20060;-89
2022/05/02 18:29:45;;;;;;;16.25;9.77;;;;;;;;;;8411455;28;20082;-88
2022/05/02 18:33:55;;;;;;;15.82;8.45;;;;;;;;;;8386387;28;20059;-86
2022/05/02 18:38:03;;;;;;;23.55;13.27;;;;;;;;;;8405788;28;20048;-89
2022/05/02 18:42:11;;;;;;;20.85;12.27;;;;;;;;;;8417689;28;20062;-88
2022/05/02 18:55:11;;;;;;;23.45;13.15;;;;;;;;;;8400974;28;20419;-89
2022/05/02 18:59:16;;;;;;;17.00;10.68;;;;;;;;;;8406616;28;20064;-88
2022/05/02 19:03:25;;;;;;;23.80;12.50;;;;;;;;;;8403014;28;20048;-89
2022/05/02 19:07:42;;;;;;;25.08;13.10;;;;;;;;;;8412672;28;20539;-88
2022/05/02 19:11:57;;;;;;;27.13;15.43;;;;;;;;;;8418169;28;20386;-88
2022/05/02 19:16:06;;;;;;;33.67;17.63;;;;;;;;;;8410928;28;20171;-91
2022/05/02 19:20:13;;;;;;;54.13;20.77;;;;;;;;;;8403015;28;20055;-87
2022/05/02 19:24:30;;;;;;;29.73;14.25;;;;;;;;;;8419608;28;20488;-88
2022/05/02 19:28:37;;;;;;;63.33;30.38;;;;;;;;;;8407877;28;20547;-87
2022/05/02 19:32:55;;;;;;;54.80;24.80;;;;;;;;;;8404939;28;20442;-89
2022/05/02 19:42:01;;;;;;;33.40;19.45;;;;;;;;;;8409332;28;20044;-88
2022/05/02 19:46:49;;;;;;;85.10;40.40;;;;;;;;;;8392572;28;20043;-87
2022/05/02 19:51:16;;;;;;;32.45;20.58;;;;;;;;;;8410813;28;20036;-86
2022/05/02 19:55:23;;;;;;;27.67;14.27;;;;;;;;;;8412052;28;20036;-89
2022/05/02 19:59:51;;;;;;;38.38;20.88;;;;;;;;;;8415636;28;20063;-86
2022/05/02 20:04:11;;;;;;;135.15;59.17;;;;;;;;;;8409542;28;20044;-89
2022/05/02 20:08:20;;;;;;;35.45;18.58;;;;;;;;;;8423685;28;20044;-86
2022/05/02 20:12:26;;;;;;;37.85;21.13;;;;;;;;;;8409199;28;20044;-88
2022/05/02 20:16:35;;;;;;;30.50;16.85;;;;;;;;;;8413174;28;20067;-87
2022/05/02 20:20:40;;;;;;;28.10;14.13;;;;;;;;;;8401042;28;20130;-91
2022/05/02 20:24:44;;;;;;;28.65;16.38;;;;;;;;;;8427845;28;20060;-89
2022/05/02 20:28:50;;;;;;;34.65;20.80;;;;;;;;;;8418471;28;20127;-88
2022/05/02 20:37:20;;;;;;;17.08;10.93;;;;;;;;;;8380939;28;20048;-92
2022/05/02 20:41:28;;;;;;;15.15;9.55;;;;;;;;;;8446086;28;20440;-88
2022/05/02 20:45:32;;;;;;;17.13;9.75;;;;;;;;;;8413921;28;20407;-87
2022/05/02 20:49:47;;;;;;;28.85;14.45;;;;;;;;;;8431568;28;20391;-91
2022/05/02 20:53:52;;;;;;;26.88;14.38;;;;;;;;;;8414214;28;20055;-90
2022/05/02 20:57:55;;;;;;;40.28;18.25;;;;;;;;;;8420265;28;20050;-92
2022/05/02 21:02:01;;;;;;;51.28;20.48;;;;;;;;;;8405328;28;20053;-87
2022/05/02 21:06:08;;;;;;;26.35;14.40;;;;;;;;;;8440918;28;20122;-92
2022/05/02 21:10:13;;;;;;;15.35;9.15;;;;;;;;;;8439525;28;20048;-87
2022/05/02 21:14:32;;;;;;;17.42;8.90;;;;;;;;;;8457525;28;20539;-87
2022/05/02 21:18:44;;;;;;;17.83;10.55;;;;;;;;;;8433776;28;20479;-92
2022/05/02 21:23:05;;;;;;;17.02;9.82;;;;;;;;;;8430945;28;20052;-87
2022/05/02 21:27:22;;;;;;;18.85;10.88;;;;;;;;;;8437977;28;20127;-86
2022/05/02 21:31:45;;;;;;;16.88;9.48;;;;;;;;;;8461258;28;20126;-86
2022/05/02 21:35:48;;;;;;;15.85;10.20;;;;;;;;;;8447702;28;20046;-87
2022/05/02 21:39:55;;;;;;;21.75;11.85;;;;;;;;;;8443832;28;20521;-86
2022/05/02 21:43:59;;;;;;;18.67;11.23;;;;;;;;;;8465457;28;20407;-86
2022/05/02 21:48:02;;;;;;;17.88;10.20;;;;;;;;;;8459289;28;20040;-86
2022/05/02 21:52:06;;;;;;;18.52;10.30;;;;;;;;;;8449356;28;20055;-88
2022/05/02 21:56:10;;;;;;;19.30;10.10;;;;;;;;;;8441030;28;20043;-90
2022/05/02 22:00:15;;;;;;;17.13;10.40;;;;;;;;;;8448672;28;20039;-86
2022/05/02 22:04:18;;;;;;;16.65;10.48;;;;;;;;;;8452539;28;20487;-87
2022/05/02 22:08:21;;;;;;;18.85;10.02;;;;;;;;;;8459708;28;20076;-86
2022/05/02 22:12:25;;;;;;;18.98;10.60;;;;;;;;;;8464136;28;20384;-88
2022/05/02 22:16:28;;;;;;;14.27;9.85;;;;;;;;;;8444031;28;20055;-86
2022/05/02 22:20:31;;;;;;;17.25;9.35;;;;;;;;;;8459769;28;20047;-86
2022/05/02 22:24:34;;;;;;;18.55;10.07;;;;;;;;;;8459640;28;20052;-85
2022/05/02 22:28:38;;;;;;;14.80;10.15;;;;;;;;;;8460304;28;20096;-88
2022/05/02 22:32:44;;;;;;;14.68;9.45;;;;;;;;;;8463969;28;20471;-86
2022/05/02 22:36:46;;;;;;;28.38;14.48;;;;;;;;;;8461087;28;20089;-86
2022/05/02 22:40:49;;;;;;;20.27;12.57;;;;;;;;;;8428093;28;20054;-86
2022/05/02 22:44:53;;;;;;;20.55;10.98;;;;;;;;;;8460124;28;20044;-85
2022/05/02 22:48:55;;;;;;;21.77;10.93;;;;;;;;;;8433509;28;20127;-87
2022/05/02 22:52:58;;;;;;;16.75;10.32;;;;;;;;;;8456944;28;20035;-86
2022/05/02 22:57:04;;;;;;;18.02;11.40;;;;;;;;;;8464500;28;20084;-86
2022/05/02 23:01:08;;;;;;;18.52;11.60;;;;;;;;;;8465066;28;20044;-85
2022/05/02 23:05:17;;;;;;;19.42;10.60;;;;;;;;;;8455235;28;20048;-86
2022/05/02 23:09:21;;;;;;;16.85;10.98;;;;;;;;;;8465655;28;20048;-92
2022/05/02 23:13:25;;;;;;;17.00;11.52;;;;;;;;;;8464648;28;20044;-87
2022/05/02 23:17:32;;;;;;;21.58;11.30;;;;;;;;;;8464726;28;20601;-91
2022/05/02 23:21:37;;;;;;;15.75;10.48;;;;;;;;;;8435025;28;20043;-91
2022/05/02 23:25:41;;;;;;;20.13;10.32;;;;;;;;;;8439863;28;20056;-91
2022/05/02 23:29:44;;;;;;;19.27;11.57;;;;;;;;;;8450760;28;20498;-87
2022/05/02 23:33:53;;;;;;;17.77;11.27;;;;;;;;;;8463352;28;20067;-86
2022/05/02 23:38:11;;;;;;;22.02;11.25;;;;;;;;;;8441912;28;20036;-89
2022/05/02 23:42:20;;;;;;;22.05;11.50;;;;;;;;;;8444978;28;20039;-87
2022/05/02 23:46:30;;;;;;;22.60;12.55;;;;;;;;;;8463591;28;20047;-87
2022/05/02 23:50:45;;;;;;;20.83;11.07;;;;;;;;;;8463079;28;20115;-87
2022/05/02 23:55:02;;;;;;;19.27;11.40;;;;;;;;;;8457419;28;20040;-87
2022/05/02 23:59:19;;;;;;;21.10;12.32;;;;;;;;;;8464087;28;20083;-90
